createdAt,value
2022-12-31T00:01:37.716Z,67.64
2022-12-31T00:04:04.158Z,67.84
2022-12-31T00:06:33.079Z,67.15
2022-12-31T00:09:02.385Z,66.83
2022-12-31T00:11:29.833Z,66.16
2022-12-31T00:13:57.547Z,66.21
2022-12-31T00:16:27.014Z,66.94
2022-12-31T00:18:55.905Z,67.92
2022-12-31T00:21:22.350Z,70.90
2022-12-31T00:23:48.703Z,66.88
2022-12-31T00:26:18.526Z,64.04
2022-12-31T00:28:44.717Z,64.56
2022-12-31T00:31:14.568Z,65.53
2022-12-31T00:33:41.710Z,63.36
2022-12-31T00:36:11.718Z,61.44
2022-12-31T00:38:39.683Z,61.21
2022-12-31T00:41:06.937Z,61.57
2022-12-31T00:43:34.408Z,62.07
2022-12-31T00:46:01.588Z,61.60
2022-12-31T00:48:28.248Z,61.36
2022-12-31T00:50:56.107Z,61.78
2022-12-31T00:53:23.157Z,61.50
2022-12-31T00:55:49.613Z,61.41
2022-12-31T00:58:16.197Z,60.99
2022-12-31T01:00:43.425Z,61.09
2022-12-31T01:03:10.139Z,61.57
2022-12-31T01:05:37.478Z,61.73
2022-12-31T01:08:04.947Z,61.52
2022-12-31T01:10:49.576Z,61.46
2022-12-31T01:13:15.878Z,61.37
2022-12-31T01:15:42.321Z,61.48
2022-12-31T01:18:09.034Z,61.24
2022-12-31T01:20:37.436Z,61.09
2022-12-31T01:23:04.499Z,62.76
2022-12-31T01:25:30.889Z,66.51
2022-12-31T01:27:57.238Z,62.58
2022-12-31T01:30:23.474Z,58.97
2022-12-31T01:32:51.079Z,56.84
2022-12-31T01:35:18.355Z,59.00
2022-12-31T01:37:44.567Z,63.21
2022-12-31T01:40:11.016Z,66.63
2022-12-31T01:42:37.533Z,63.77
2022-12-31T01:45:10.131Z,60.45
2022-12-31T01:47:42.164Z,57.71
2022-12-31T01:50:17.561Z,58.18
2022-12-31T01:52:47.423Z,59.88
2022-12-31T01:55:16.072Z,63.93
2022-12-31T01:57:45.678Z,67.48
2022-12-31T02:00:12.641Z,63.55
2022-12-31T02:02:39.152Z,60.20
2022-12-31T02:05:16.497Z,55.82
2022-12-31T02:07:43.598Z,56.86
2022-12-31T02:10:09.853Z,58.94
2022-12-31T02:12:36.324Z,62.56
2022-12-31T02:15:03.035Z,66.07
2022-12-31T02:17:34.850Z,66.09
2022-12-31T02:20:29.226Z,65.93
2022-12-31T02:23:37.240Z,64.04
2022-12-31T02:26:25.256Z,57.70
2022-12-31T02:29:34.222Z,56.83
2022-12-31T02:32:07.216Z,59.45
2022-12-31T02:34:37.388Z,63.43
2022-12-31T02:37:10.018Z,66.79
2022-12-31T02:39:37.801Z,64.43
2022-12-31T02:42:04.180Z,61.41
2022-12-31T02:44:32.898Z,59.16
2022-12-31T02:47:08.167Z,56.95
2022-12-31T02:49:53.031Z,58.46
2022-12-31T02:52:44.169Z,61.04
2022-12-31T02:55:40.540Z,62.84
2022-12-31T02:58:21.990Z,67.62
2022-12-31T03:01:12.987Z,63.41
2022-12-31T03:03:39.897Z,59.48
2022-12-31T03:06:08.881Z,56.55
2022-12-31T03:08:55.520Z,57.53
2022-12-31T03:11:40.592Z,58.53
2022-12-31T03:14:06.813Z,62.49
2022-12-31T03:16:34.244Z,65.08
2022-12-31T03:19:19.582Z,64.70
2022-12-31T03:22:04.662Z,63.78
2022-12-31T03:24:49.392Z,62.56
2022-12-31T03:27:15.590Z,61.86
2022-12-31T03:29:42.033Z,61.92
2022-12-31T03:32:08.300Z,61.56
2022-12-31T03:34:34.584Z,61.35
2022-12-31T03:37:00.843Z,61.37
2022-12-31T03:39:27.126Z,61.57
2022-12-31T03:41:53.414Z,62.09
2022-12-31T03:44:19.795Z,62.04
2022-12-31T03:46:46.126Z,62.26
2022-12-31T03:49:12.452Z,61.69
2022-12-31T03:51:38.829Z,60.80
2022-12-31T03:54:05.123Z,60.12
2022-12-31T03:56:31.342Z,60.37
2022-12-31T03:58:57.761Z,60.11
2022-12-31T04:01:24.867Z,59.57
2022-12-31T04:03:51.337Z,59.11
2022-12-31T04:06:17.684Z,58.86
2022-12-31T04:08:43.911Z,61.24
2022-12-31T04:11:10.148Z,64.15
2022-12-31T04:13:36.361Z,64.53
2022-12-31T04:16:02.713Z,64.12
2022-12-31T04:18:29.164Z,63.40
2022-12-31T04:21:01.620Z,62.81
2022-12-31T04:23:27.988Z,63.26
2022-12-31T04:25:54.313Z,63.04
2022-12-31T04:28:20.546Z,63.33
2022-12-31T04:30:46.767Z,63.60
2022-12-31T04:33:13.047Z,63.53
2022-12-31T04:35:39.285Z,63.67
2022-12-31T04:38:05.850Z,63.56
2022-12-31T04:40:32.072Z,63.86
2022-12-31T04:42:58.348Z,63.81
2022-12-31T04:45:24.811Z,63.55
2022-12-31T04:47:51.152Z,63.46
2022-12-31T04:50:17.460Z,63.27
2022-12-31T04:52:44.130Z,63.48
2022-12-31T04:55:10.947Z,63.90
2022-12-31T04:57:37.219Z,64.09
2022-12-31T05:00:03.834Z,64.26
2022-12-31T05:02:30.300Z,64.45
2022-12-31T05:04:56.710Z,65.24
2022-12-31T05:07:23.139Z,65.33
2022-12-31T05:09:51.047Z,65.21
2022-12-31T05:12:17.315Z,65.63
2022-12-31T05:14:43.635Z,65.89
2022-12-31T05:17:09.920Z,66.77
2022-12-31T05:19:36.217Z,66.90
2022-12-31T05:22:21.023Z,67.52
2022-12-31T05:24:47.273Z,67.53
2022-12-31T05:27:14.332Z,67.20
2022-12-31T05:29:40.559Z,67.69
2022-12-31T05:32:06.877Z,68.15
2022-12-31T05:34:33.244Z,68.70
2022-12-31T05:36:59.464Z,68.76
2022-12-31T05:39:25.880Z,67.90
2022-12-31T05:41:52.201Z,67.66
2022-12-31T05:44:18.425Z,68.02
2022-12-31T05:46:46.267Z,68.46
2022-12-31T05:49:12.545Z,68.46
2022-12-31T05:51:38.882Z,68.69
2022-12-31T05:54:05.280Z,69.10
2022-12-31T05:56:31.653Z,68.97
2022-12-31T05:58:57.878Z,69.73
2022-12-31T06:01:24.147Z,69.86
2022-12-31T06:03:50.460Z,69.98
2022-12-31T06:06:16.783Z,70.09
2022-12-31T06:08:43.208Z,70.06
2022-12-31T06:11:09.518Z,70.33
2022-12-31T06:13:35.830Z,70.26
2022-12-31T06:16:08.805Z,70.13
2022-12-31T06:18:35.180Z,70.19
2022-12-31T06:21:03.416Z,70.23
2022-12-31T06:23:30.158Z,70.62
2022-12-31T06:25:56.407Z,71.09
2022-12-31T06:28:22.622Z,71.25
2022-12-31T06:30:48.905Z,71.35
2022-12-31T06:33:15.249Z,71.50
2022-12-31T06:35:41.608Z,71.62
2022-12-31T06:38:07.865Z,71.72
2022-12-31T06:40:36.901Z,71.76
2022-12-31T06:43:03.127Z,71.59
2022-12-31T06:45:29.513Z,71.52
2022-12-31T06:47:55.798Z,71.37
2022-12-31T06:50:22.043Z,71.36
2022-12-31T06:52:48.294Z,71.34
2022-12-31T06:55:15.122Z,71.33
2022-12-31T06:57:41.815Z,70.88
2022-12-31T07:00:10.413Z,71.46
2022-12-31T07:03:02.326Z,71.29
2022-12-31T07:06:13.177Z,71.62
2022-12-31T07:08:52.958Z,71.67
2022-12-31T07:11:31.559Z,72.29
2022-12-31T07:14:16.045Z,72.67
2022-12-31T07:17:22.307Z,72.92
2022-12-31T07:20:13.069Z,74.60
2022-12-31T07:22:40.484Z,72.60
2022-12-31T07:25:12.237Z,70.29
2022-12-31T07:27:53.849Z,70.13
2022-12-31T07:30:23.887Z,69.65
2022-12-31T07:33:06.695Z,68.68
2022-12-31T07:35:35.759Z,68.04
2022-12-31T07:38:27.655Z,68.22
2022-12-31T07:40:54.099Z,68.21
2022-12-31T07:43:42.128Z,68.37
2022-12-31T07:46:17.216Z,68.22
2022-12-31T07:48:43.785Z,67.92
2022-12-31T07:51:11.056Z,67.91
2022-12-31T07:53:38.990Z,68.46
2022-12-31T07:56:08.042Z,68.73
2022-12-31T07:58:39.116Z,68.41
2022-12-31T08:01:12.427Z,67.45
2022-12-31T08:04:04.314Z,67.01
2022-12-31T08:06:45.476Z,67.58
2022-12-31T08:09:25.124Z,66.79
2022-12-31T08:12:00.795Z,65.99
2022-12-31T08:14:28.107Z,66.03
2022-12-31T08:16:55.898Z,67.15
2022-12-31T08:19:25.921Z,65.31
2022-12-31T08:22:20.327Z,64.62
2022-12-31T08:25:11.610Z,64.50
2022-12-31T08:27:52.511Z,64.48
2022-12-31T08:30:20.691Z,63.84
2022-12-31T08:33:32.328Z,63.62
2022-12-31T08:36:10.035Z,64.11
2022-12-31T08:38:57.329Z,64.62
2022-12-31T08:41:43.613Z,64.29
2022-12-31T08:44:21.872Z,62.54
2022-12-31T08:47:02.489Z,61.66
2022-12-31T08:49:31.320Z,61.68
2022-12-31T08:51:59.047Z,61.64
2022-12-31T08:54:25.816Z,61.18
2022-12-31T08:56:52.142Z,61.47
2022-12-31T08:59:28.755Z,61.05
2022-12-31T09:02:08.992Z,60.76
2022-12-31T09:05:09.096Z,60.68
2022-12-31T09:07:39.063Z,60.79
2022-12-31T09:10:17.875Z,60.85
2022-12-31T09:13:19.375Z,60.97
2022-12-31T09:16:17.864Z,61.05
2022-12-31T09:18:44.311Z,61.28
2022-12-31T09:21:13.324Z,61.31
2022-12-31T09:23:40.343Z,61.12
2022-12-31T09:26:17.688Z,61.22
2022-12-31T09:28:46.566Z,61.52
2022-12-31T09:31:17.857Z,61.44
2022-12-31T09:33:56.955Z,61.23
2022-12-31T09:36:34.803Z,60.69
2022-12-31T09:39:29.894Z,60.37
2022-12-31T09:42:15.002Z,60.28
2022-12-31T09:44:59.933Z,60.24
2022-12-31T09:47:35.061Z,60.15
2022-12-31T09:50:28.064Z,59.79
2022-12-31T09:53:18.371Z,59.73
2022-12-31T09:56:21.698Z,59.60
2022-12-31T09:59:14.355Z,58.11
2022-12-31T10:02:15.465Z,59.05
2022-12-31T10:04:53.339Z,60.65
2022-12-31T10:07:51.995Z,63.40
2022-12-31T10:10:23.698Z,63.99
2022-12-31T10:13:23.114Z,62.61
2022-12-31T10:16:28.506Z,62.13
2022-12-31T10:19:29.050Z,61.28
2022-12-31T10:22:23.301Z,60.67
2022-12-31T10:25:08.133Z,60.32
2022-12-31T10:27:48.397Z,60.08
2022-12-31T10:30:17.940Z,58.72
2022-12-31T10:33:12.037Z,58.37
2022-12-31T10:36:01.971Z,60.36
2022-12-31T10:38:33.009Z,61.73
2022-12-31T10:41:30.946Z,63.58
2022-12-31T10:44:42.296Z,63.69
2022-12-31T10:47:19.094Z,62.85
2022-12-31T10:50:14.950Z,61.83
2022-12-31T10:53:07.316Z,60.97
2022-12-31T10:55:53.529Z,59.88
2022-12-31T10:58:48.018Z,59.58
2022-12-31T11:01:27.471Z,59.01
2022-12-31T11:03:53.814Z,59.41
2022-12-31T11:06:22.881Z,61.14
2022-12-31T11:09:23.363Z,61.78
2022-12-31T11:12:08.490Z,61.86
2022-12-31T11:14:42.444Z,63.56
2022-12-31T11:17:14.822Z,63.79
2022-12-31T11:19:59.685Z,62.52
2022-12-31T11:22:48.883Z,62.03
2022-12-31T11:25:22.168Z,62.17
2022-12-31T11:28:14.435Z,61.40
2022-12-31T11:31:06.027Z,60.71
2022-12-31T11:33:59.735Z,60.36
2022-12-31T11:36:38.974Z,59.93
2022-12-31T11:39:38.050Z,59.86
2022-12-31T11:42:20.656Z,58.48
2022-12-31T11:44:56.561Z,58.99
2022-12-31T11:47:28.900Z,60.16
2022-12-31T11:50:17.282Z,61.27
2022-12-31T11:53:38.044Z,62.90
2022-12-31T11:56:09.285Z,63.03
2022-12-31T11:58:35.588Z,61.90
2022-12-31T12:01:12.963Z,60.47
2022-12-31T12:03:46.739Z,59.98
2022-12-31T12:06:19.375Z,58.91
2022-12-31T12:08:46.096Z,58.19
2022-12-31T12:11:25.686Z,59.87
2022-12-31T12:13:52.222Z,61.32
2022-12-31T12:16:21.168Z,61.48
2022-12-31T12:19:00.847Z,63.04
2022-12-31T12:21:28.061Z,63.61
2022-12-31T12:24:03.943Z,62.35
2022-12-31T12:26:36.457Z,61.84
2022-12-31T12:29:20.359Z,61.05
2022-12-31T12:31:57.010Z,60.53
2022-12-31T12:34:27.728Z,60.66
2022-12-31T12:36:54.297Z,61.07
2022-12-31T12:39:23.832Z,60.47
2022-12-31T12:42:15.124Z,60.16
2022-12-31T12:44:42.010Z,59.53
2022-12-31T12:47:16.420Z,59.84
2022-12-31T12:49:48.923Z,61.48
2022-12-31T12:52:15.105Z,64.30
2022-12-31T12:54:56.594Z,64.17
2022-12-31T12:57:58.157Z,63.42
2022-12-31T13:01:04.493Z,62.81
2022-12-31T13:03:33.805Z,62.17
2022-12-31T13:06:32.751Z,61.96
2022-12-31T13:09:27.148Z,61.67
2022-12-31T13:12:08.499Z,61.33
2022-12-31T13:14:45.253Z,61.17
2022-12-31T13:17:54.063Z,61.14
2022-12-31T13:21:14.326Z,60.38
2022-12-31T13:23:59.746Z,60.29
2022-12-31T13:26:49.802Z,59.08
2022-12-31T13:29:23.393Z,59.39
2022-12-31T13:31:52.180Z,60.97
2022-12-31T13:34:25.095Z,62.10
2022-12-31T13:36:53.649Z,64.30
2022-12-31T13:39:35.559Z,64.89
2022-12-31T13:42:16.176Z,63.93
2022-12-31T13:44:58.563Z,62.96
2022-12-31T13:47:27.997Z,62.02
2022-12-31T13:49:58.317Z,61.39
2022-12-31T13:52:47.983Z,61.20
2022-12-31T13:55:29.148Z,60.64
2022-12-31T13:58:17.895Z,60.19
2022-12-31T14:00:50.561Z,60.09
2022-12-31T14:03:21.180Z,59.92
2022-12-31T14:08:52.912Z,58.99
2022-12-31T14:11:31.318Z,59.34
2022-12-31T14:14:23.845Z,61.04
2022-12-31T14:16:55.938Z,62.62
2022-12-31T14:19:41.047Z,64.04
2022-12-31T14:22:48.056Z,63.52
2022-12-31T14:25:34.370Z,62.32
2022-12-31T14:28:04.364Z,61.26
2022-12-31T14:30:40.124Z,60.55
2022-12-31T14:33:16.907Z,59.97
2022-12-31T14:36:24.392Z,59.65
2022-12-31T14:39:17.963Z,59.11
2022-12-31T14:42:08.049Z,60.42
2022-12-31T14:45:12.892Z,61.38
2022-12-31T14:47:53.841Z,63.81
2022-12-31T14:50:26.266Z,63.45
2022-12-31T14:53:24.776Z,62.64
2022-12-31T14:56:00.020Z,61.33
2022-12-31T14:58:34.080Z,60.56
2022-12-31T15:01:06.472Z,60.09
2022-12-31T15:03:40.107Z,59.01
2022-12-31T15:06:38.246Z,59.02
2022-12-31T15:09:24.685Z,60.99
2022-12-31T15:12:01.265Z,62.71
2022-12-31T15:14:56.892Z,63.44
2022-12-31T15:17:33.482Z,62.36
2022-12-31T15:20:17.422Z,61.35
2022-12-31T15:22:51.055Z,60.63
2022-12-31T15:25:24.389Z,60.02
2022-12-31T15:27:53.221Z,59.37
2022-12-31T15:30:32.735Z,59.36
2022-12-31T15:33:05.165Z,60.48
2022-12-31T15:35:46.252Z,62.20
2022-12-31T15:38:13.844Z,63.56
2022-12-31T15:40:50.425Z,63.16
2022-12-31T15:43:35.293Z,62.34
2022-12-31T15:46:09.775Z,61.19
2022-12-31T15:48:50.268Z,60.65
2022-12-31T15:51:29.561Z,59.98
2022-12-31T15:54:00.722Z,58.74
2022-12-31T15:56:33.863Z,59.53
2022-12-31T15:59:06.411Z,61.39
2022-12-31T16:01:36.392Z,62.73
2022-12-31T16:04:16.383Z,63.26
2022-12-31T16:06:50.718Z,62.44
2022-12-31T16:09:29.075Z,61.74
2022-12-31T16:11:59.104Z,60.75
2022-12-31T16:14:36.346Z,60.09
2022-12-31T16:17:05.032Z,59.58
2022-12-31T16:19:45.655Z,58.72
2022-12-31T16:22:17.034Z,59.27
2022-12-31T16:25:19.363Z,60.46
2022-12-31T16:27:35.289Z,62.51
2022-12-31T16:30:07.535Z,63.26
2022-12-31T16:32:39.072Z,62.73
2022-12-31T16:35:25.553Z,62.09
2022-12-31T16:38:08.264Z,61.32
2022-12-31T16:40:35.947Z,60.92
2022-12-31T16:43:04.026Z,60.28
2022-12-31T16:45:36.812Z,59.66
2022-12-31T16:48:17.657Z,59.06
2022-12-31T16:50:52.297Z,59.69
2022-12-31T16:53:24.779Z,60.65
2022-12-31T16:56:01.133Z,62.27
2022-12-31T16:58:37.193Z,63.34
2022-12-31T17:01:18.900Z,62.76
2022-12-31T17:03:53.513Z,61.42
2022-12-31T17:09:15.617Z,59.73
2022-12-31T17:12:09.942Z,60.39
2022-12-31T17:14:48.925Z,61.31
2022-12-31T17:17:25.500Z,62.45
2022-12-31T17:19:58.184Z,63.54
2022-12-31T17:22:36.439Z,63.21
2022-12-31T17:25:09.477Z,62.09
2022-12-31T17:27:37.454Z,61.64
2022-12-31T17:30:20.081Z,61.13
2022-12-31T17:32:50.890Z,60.31
2022-12-31T17:35:27.804Z,60.34
2022-12-31T17:37:55.517Z,59.90
2022-12-31T17:40:50.867Z,59.69
2022-12-31T17:43:21.677Z,59.64
2022-12-31T17:45:54.538Z,59.66
2022-12-31T17:48:24.415Z,58.97
2022-12-31T17:50:57.673Z,59.21
2022-12-31T17:53:25.902Z,60.50
2022-12-31T17:55:56.789Z,62.07
2022-12-31T17:58:42.241Z,63.58
2022-12-31T18:01:12.314Z,63.59
2022-12-31T18:03:40.061Z,62.76
2022-12-31T18:06:16.082Z,61.74
2022-12-31T18:08:44.154Z,61.26
2022-12-31T18:11:23.674Z,61.03
2022-12-31T18:13:53.093Z,60.45
2022-12-31T18:16:20.719Z,59.99
2022-12-31T18:18:48.505Z,60.02
2022-12-31T18:21:29.210Z,59.68
2022-12-31T18:26:24.738Z,59.30
2022-12-31T18:28:52.893Z,60.26
2022-12-31T18:31:28.607Z,60.86
2022-12-31T18:33:58.277Z,63.14
2022-12-31T18:36:27.658Z,63.99
2022-12-31T18:38:55.488Z,63.23
2022-12-31T18:41:26.893Z,62.73
2022-12-31T18:43:55.096Z,61.64
2022-12-31T18:46:24.619Z,61.01
2022-12-31T18:48:52.506Z,60.37
2022-12-31T18:51:31.116Z,59.94
2022-12-31T18:54:04.608Z,59.86
2022-12-31T18:56:32.295Z,58.98
2022-12-31T18:59:00.208Z,59.06
2022-12-31T19:01:33.449Z,59.74
2022-12-31T19:04:04.149Z,61.59
2022-12-31T19:06:31.792Z,62.70
2022-12-31T19:09:01.197Z,63.06
2022-12-31T19:11:29.201Z,62.47
2022-12-31T19:13:56.915Z,61.81
2022-12-31T19:16:25.082Z,60.80
2022-12-31T19:18:52.865Z,60.31
2022-12-31T19:21:23.742Z,59.95
2022-12-31T19:23:51.594Z,59.09
2022-12-31T19:26:22.240Z,59.43
2022-12-31T19:28:51.140Z,60.73
2022-12-31T19:31:18.997Z,61.55
2022-12-31T19:33:47.220Z,62.69
2022-12-31T19:36:20.184Z,63.03
2022-12-31T19:38:47.858Z,62.39
2022-12-31T19:41:18.924Z,61.66
2022-12-31T19:43:47.836Z,60.76
2022-12-31T19:46:17.793Z,60.46
2022-12-31T19:48:46.340Z,60.03
2022-12-31T19:51:21.706Z,58.99
2022-12-31T19:53:49.805Z,59.44
2022-12-31T19:56:19.996Z,60.39
2022-12-31T19:58:47.628Z,61.71
2022-12-31T20:01:21.809Z,63.20
2022-12-31T20:03:50.237Z,63.24
2022-12-31T20:06:19.095Z,62.73
2022-12-31T20:08:46.753Z,61.95
2022-12-31T20:11:17.398Z,61.46
2022-12-31T20:13:46.499Z,60.94
2022-12-31T20:16:19.504Z,60.35
2022-12-31T20:18:47.839Z,59.81
2022-12-31T20:21:21.431Z,58.92
2022-12-31T20:23:50.625Z,59.55
2022-12-31T20:26:19.193Z,60.22
2022-12-31T20:28:46.867Z,61.80
2022-12-31T20:31:18.133Z,63.46
2022-12-31T20:33:45.965Z,63.62
2022-12-31T20:36:15.465Z,62.87
2022-12-31T20:38:43.990Z,62.15
2022-12-31T20:41:13.457Z,61.55
2022-12-31T20:43:41.605Z,60.87
2022-12-31T20:46:15.611Z,60.23
2022-12-31T20:48:44.950Z,59.69
2022-12-31T20:51:14.266Z,58.77
2022-12-31T20:53:48.860Z,59.08
2022-12-31T20:56:17.185Z,59.84
2022-12-31T20:58:45.004Z,61.50
2022-12-31T21:01:13.807Z,63.06
2022-12-31T21:09:21.551Z,60.54
2022-12-31T21:12:08.005Z,60.59
2022-12-31T21:14:38.546Z,61.49
2022-12-31T21:17:10.514Z,62.91
2022-12-31T21:19:38.194Z,63.01
2022-12-31T21:22:05.869Z,62.51
2022-12-31T21:24:33.488Z,61.29
2022-12-31T21:27:01.153Z,60.62
2022-12-31T21:29:32.769Z,60.15
2022-12-31T21:32:02.269Z,59.05
2022-12-31T21:34:30.017Z,59.43
2022-12-31T21:36:58.059Z,60.51
2022-12-31T21:39:25.740Z,61.30
2022-12-31T21:41:53.433Z,62.46
2022-12-31T21:44:25.875Z,63.28
2022-12-31T21:47:33.175Z,62.73
2022-12-31T21:49:44.465Z,62.06
2022-12-31T21:52:27.837Z,60.95
2022-12-31T21:55:16.491Z,60.31
2022-12-31T21:58:24.346Z,59.82
2022-12-31T22:00:52.801Z,59.10
2022-12-31T22:03:29.615Z,60.03
2022-12-31T22:09:00.530Z,62.46
2022-12-31T22:11:28.530Z,63.21
2022-12-31T22:13:56.318Z,62.80
2022-12-31T22:16:24.054Z,62.01
2022-12-31T22:18:55.030Z,61.36
2022-12-31T22:21:24.490Z,61.04
2022-12-31T22:23:54.848Z,60.59
2022-12-31T22:26:26.043Z,60.15
2022-12-31T22:28:59.001Z,59.88
2022-12-31T22:31:32.752Z,59.24
2022-12-31T22:34:00.838Z,58.64
2022-12-31T22:36:28.574Z,59.68
2022-12-31T22:38:58.070Z,61.05
2022-12-31T22:41:27.159Z,61.53
2022-12-31T22:44:02.994Z,63.66
2022-12-31T22:46:33.307Z,64.06
2022-12-31T22:49:02.728Z,63.45
2022-12-31T22:51:56.902Z,62.58
2022-12-31T22:54:18.933Z,61.85
2022-12-31T22:56:46.825Z,61.40
2022-12-31T22:59:14.642Z,60.89
2022-12-31T23:01:42.485Z,60.67
2022-12-31T23:04:10.237Z,60.47
2022-12-31T23:06:43.540Z,60.36
2022-12-31T23:09:31.549Z,59.93
2022-12-31T23:11:59.816Z,59.95
2022-12-31T23:14:46.153Z,59.75
2022-12-31T23:17:42.426Z,59.73
2022-12-31T23:20:39.151Z,59.56
2022-12-31T23:23:09.057Z,58.92
2022-12-31T23:25:46.058Z,59.85
2022-12-31T23:28:16.955Z,60.93
2022-12-31T23:30:44.814Z,61.67
2022-12-31T23:33:16.017Z,63.60
2022-12-31T23:35:44.205Z,64.08
2022-12-31T23:38:12.585Z,63.40
2022-12-31T23:40:40.183Z,62.87
2022-12-31T23:43:21.107Z,62.15
2022-12-31T23:45:52.661Z,61.47
2022-12-31T23:48:20.703Z,60.86
2022-12-31T23:50:53.404Z,60.47
2022-12-31T23:53:24.752Z,60.07
2022-12-31T23:55:53.331Z,59.80
2022-12-31T23:58:21.782Z,59.16
